Time;durP1;ratioP1;P1;durP2;ratioP2;P2;SDS_P1;SDS_P2;PMS_P1;PMS_P2;Temp;Humidity;BMP_temperature;BMP_pressure;BME280_temperature;BME280_humidity;BME280_pressure;Samples;Min_cycle;Max_cycle;Signal;HPM_P1;HPM_P2
2023/06/18 00:00:14;;;;;;;5.78;5.28;;;;;;;;;;5063623;28;20087;-62
2023/06/18 00:02:40;;;;;;;6.22;5.72;;;;;;;;;;5064372;28;20048;-62
2023/06/18 00:05:07;;;;;;;5.88;5.38;;;;;;;;;;5064118;28;20077;-62
2023/06/18 00:07:33;;;;;;;6.38;5.78;;;;;;;;;;5063226;28;20090;-62
2023/06/18 00:09:59;;;;;;;6.90;6.30;;;;;;;;;;5063623;28;20466;-62
2023/06/18 00:12:25;;;;;;;5.95;5.45;;;;;;;;;;5063392;28;20052;-62
2023/06/18 00:14:50;;;;;;;5.30;4.90;;;;;;;;;;5062844;28;20126;-62
2023/06/18 00:17:16;;;;;;;5.43;5.03;;;;;;;;;;5063740;28;20508;-61
2023/06/18 00:19:42;;;;;;;5.70;5.20;;;;;;;;;;5063832;28;20046;-61
2023/06/18 00:22:09;;;;;;;6.15;5.63;;;;;;;;;;5062977;28;20044;-62
2023/06/18 00:24:35;;;;;;;5.63;5.15;;;;;;;;;;5063625;28;20472;-61
2023/06/18 00:27:01;;;;;;;5.53;5.13;;;;;;;;;;5063290;28;20226;-62
2023/06/18 00:29:29;;;;;;;5.32;4.90;;;;;;;;;;5061712;28;20133;-62
2023/06/18 00:31:55;;;;;;;6.30;5.70;;;;;;;;;;5063499;28;20484;-61
2023/06/18 00:34:32;;;;;;;6.65;6.05;;;;;;;;;;5063183;28;20055;-62
2023/06/18 00:36:59;;;;;;;5.72;5.28;;;;;;;;;;5062764;28;20058;-61
2023/06/18 00:39:25;;;;;;;6.45;5.85;;;;;;;;;;5063357;28;20090;-61
2023/06/18 00:41:51;;;;;;;6.40;5.82;;;;;;;;;;5063525;28;20431;-61
2023/06/18 00:44:21;;;;;;;6.25;5.65;;;;;;;;;;5062764;28;20048;-62
2023/06/18 00:46:51;;;;;;;5.35;4.85;;;;;;;;;;5063990;28;20666;-62
2023/06/18 00:49:18;;;;;;;5.00;4.60;;;;;;;;;;5063577;28;20049;-62
2023/06/18 00:51:45;;;;;;;5.35;4.95;;;;;;;;;;5063849;28;20040;-62
2023/06/18 00:54:18;;;;;;;5.47;4.97;;;;;;;;;;5063294;28;20130;-62
2023/06/18 00:56:53;;;;;;;6.15;5.55;;;;;;;;;;5063120;28;20076;-62
2023/06/18 00:59:23;;;;;;;5.70;5.30;;;;;;;;;;5062894;28;20056;-62
2023/06/18 01:01:53;;;;;;;6.57;5.97;;;;;;;;;;5062962;28;20660;-62
2023/06/18 01:04:21;;;;;;;5.53;5.07;;;;;;;;;;5062147;28;20059;-61
2023/06/18 01:06:51;;;;;;;6.13;5.63;;;;;;;;;;5063909;28;20045;-62
2023/06/18 01:09:21;;;;;;;5.78;5.28;;;;;;;;;;5063181;28;20079;-62
2023/06/18 01:11:47;;;;;;;5.22;4.82;;;;;;;;;;5063281;28;20421;-61
2023/06/18 01:14:14;;;;;;;5.90;5.18;;;;;;;;;;5062526;28;20059;-62
2023/06/18 01:16:45;;;;;;;5.22;4.82;;;;;;;;;;5063277;28;20351;-62
2023/06/18 01:19:21;;;;;;;6.07;5.57;;;;;;;;;;5061811;28;20119;-62
2023/06/18 01:21:52;;;;;;;6.15;5.63;;;;;;;;;;5063607;28;20579;-61
2023/06/18 01:24:23;;;;;;;6.40;5.90;;;;;;;;;;5063435;28;20044;-61
2023/06/18 01:26:49;;;;;;;6.57;5.97;;;;;;;;;;5062301;28;20319;-61
2023/06/18 01:29:16;;;;;;;6.10;5.60;;;;;;;;;;5063136;28;20099;-62
2023/06/18 01:31:44;;;;;;;6.05;5.45;;;;;;;;;;5044321;28;20094;-62
2023/06/18 01:34:10;;;;;;;6.50;5.85;;;;;;;;;;5062395;28;20053;-62
2023/06/18 01:36:37;;;;;;;6.47;5.88;;;;;;;;;;5063004;28;20105;-62
2023/06/18 01:39:13;;;;;;;5.60;5.18;;;;;;;;;;5062105;28;20115;-61
2023/06/18 01:41:41;;;;;;;6.40;5.90;;;;;;;;;;5067061;28;20044;-62
2023/06/18 01:44:12;;;;;;;6.78;6.18;;;;;;;;;;5066538;28;20048;-61
2023/06/18 01:46:38;;;;;;;6.25;5.75;;;;;;;;;;5065919;28;20055;-61
2023/06/18 01:49:07;;;;;;;6.25;5.65;;;;;;;;;;5066297;28;20523;-61
2023/06/18 01:51:35;;;;;;;6.30;5.70;;;;;;;;;;5066654;28;20048;-61
2023/06/18 01:54:02;;;;;;;6.32;5.72;;;;;;;;;;5066152;28;20147;-62
2023/06/18 01:56:28;;;;;;;5.82;5.32;;;;;;;;;;5066299;28;20043;-62
2023/06/18 01:58:55;;;;;;;5.88;5.38;;;;;;;;;;5066329;28;20123;-61
2023/06/18 02:01:21;;;;;;;5.63;5.18;;;;;;;;;;5065108;28;20269;-61
2023/06/18 02:03:48;;;;;;;5.90;5.40;;;;;;;;;;5066990;28;20044;-61
2023/06/18 02:06:14;;;;;;;5.60;5.10;;;;;;;;;;5065732;28;20060;-61
2023/06/18 02:08:40;;;;;;;6.25;5.63;;;;;;;;;;5065482;28;20049;-62
2023/06/18 02:11:06;;;;;;;5.35;4.90;;;;;;;;;;5066032;28;20118;-61
2023/06/18 02:13:32;;;;;;;5.78;5.28;;;;;;;;;;5065995;28;20419;-61
2023/06/18 02:15:58;;;;;;;6.38;5.78;;;;;;;;;;5065770;28;20032;-62
2023/06/18 02:18:24;;;;;;;5.93;5.40;;;;;;;;;;5065749;28;20417;-62
2023/06/18 02:20:51;;;;;;;6.38;5.88;;;;;;;;;;5065488;28;20346;-61
2023/06/18 02:23:17;;;;;;;6.20;5.70;;;;;;;;;;5066279;28;20045;-61
2023/06/18 02:25:44;;;;;;;6.18;5.68;;;;;;;;;;5065934;28;20052;-62
2023/06/18 02:28:11;;;;;;;5.90;5.40;;;;;;;;;;5064739;28;20048;-61
2023/06/18 02:30:37;;;;;;;6.35;5.60;;;;;;;;;;5065548;28;20052;-61
2023/06/18 02:33:07;;;;;;;6.88;6.28;;;;;;;;;;5065907;28;20036;-62
2023/06/18 02:35:33;;;;;;;6.13;5.55;;;;;;;;;;5065058;28;20040;-62
2023/06/18 02:37:59;;;;;;;6.25;5.75;;;;;;;;;;5048311;28;20102;-62
2023/06/18 02:40:25;;;;;;;6.50;5.72;;;;;;;;;;5065371;28;20044;-61
2023/06/18 02:42:52;;;;;;;6.80;6.10;;;;;;;;;;5064847;28;20048;-61
2023/06/18 02:45:22;;;;;;;5.97;5.47;;;;;;;;;;5065417;28;20055;-62
2023/06/18 02:47:48;;;;;;;5.70;5.20;;;;;;;;;;5066227;28;20052;-61
2023/06/18 02:50:15;;;;;;;5.75;5.25;;;;;;;;;;5046726;28;20127;-62
2023/06/18 02:52:42;;;;;;;5.30;4.90;;;;;;;;;;5064885;28;20543;-61
2023/06/18 02:55:08;;;;;;;5.90;5.40;;;;;;;;;;5064844;28;20497;-61
2023/06/18 02:57:35;;;;;;;5.20;4.70;;;;;;;;;;5064352;28;20036;-62
2023/06/18 03:00:04;;;;;;;4.10;3.80;;;;;;;;;;5065466;28;20130;-61
2023/06/18 03:02:30;;;;;;;4.40;4.00;;;;;;;;;;5064934;28;20036;-61
2023/06/18 03:04:56;;;;;;;3.83;3.60;;;;;;;;;;5064548;28;20056;-61
2023/06/18 03:07:22;;;;;;;4.55;4.25;;;;;;;;;;5064956;28;20404;-61
2023/06/18 03:09:48;;;;;;;3.97;3.67;;;;;;;;;;5065434;28;20055;-61
2023/06/18 03:12:15;;;;;;;4.07;3.78;;;;;;;;;;5064371;28;20059;-61
2023/06/18 03:14:40;;;;;;;4.32;3.92;;;;;;;;;;5065384;28;20040;-61
2023/06/18 03:17:06;;;;;;;4.05;3.75;;;;;;;;;;5064090;28;20579;-61
2023/06/18 03:19:32;;;;;;;3.47;3.28;;;;;;;;;;5064982;28;20036;-61
2023/06/18 03:21:58;;;;;;;3.33;3.13;;;;;;;;;;5064933;28;20580;-61
2023/06/18 03:24:24;;;;;;;3.20;3.00;;;;;;;;;;5063965;28;20040;-61
2023/06/18 03:26:51;;;;;;;3.00;2.80;;;;;;;;;;5064801;28;20395;-61
2023/06/18 03:29:17;;;;;;;3.20;3.00;;;;;;;;;;5064895;28;20373;-61
2023/06/18 03:31:45;;;;;;;4.03;3.20;;;;;;;;;;5063885;28;20519;-61
2023/06/18 03:34:12;;;;;;;3.13;2.92;;;;;;;;;;5064216;28;20052;-61
2023/06/18 03:36:41;;;;;;;3.00;2.80;;;;;;;;;;5064574;28;20051;-61
2023/06/18 03:39:10;;;;;;;2.70;2.50;;;;;;;;;;5063795;28;20040;-61
2023/06/18 03:41:36;;;;;;;2.60;2.40;;;;;;;;;;5064615;28;20064;-61
2023/06/18 03:44:03;;;;;;;2.78;2.58;;;;;;;;;;5064289;28;20493;-61
2023/06/18 03:46:29;;;;;;;2.80;2.60;;;;;;;;;;5063364;28;20658;-61
2023/06/18 03:48:55;;;;;;;3.60;3.40;;;;;;;;;;5064514;28;20036;-61
2023/06/18 03:51:21;;;;;;;3.17;2.97;;;;;;;;;;5064380;28;20033;-61
2023/06/18 03:53:48;;;;;;;2.22;2.13;;;;;;;;;;5064352;28;20041;-61
2023/06/18 03:56:14;;;;;;;2.65;2.45;;;;;;;;;;5064094;28;20048;-61
2023/06/18 03:58:40;;;;;;;2.50;2.30;;;;;;;;;;5064196;28;20067;-61
2023/06/18 04:01:07;;;;;;;2.63;2.42;;;;;;;;;;5063475;28;20097;-61
2023/06/18 04:03:33;;;;;;;3.00;2.80;;;;;;;;;;5063414;28;20126;-61
2023/06/18 04:05:59;;;;;;;2.30;2.10;;;;;;;;;;5064091;28;20052;-61
2023/06/18 04:08:25;;;;;;;2.20;2.10;;;;;;;;;;5062698;28;20063;-62
2023/06/18 04:10:51;;;;;;;2.22;2.03;;;;;;;;;;5063567;28;20412;-61
2023/06/18 04:13:18;;;;;;;2.50;2.30;;;;;;;;;;5063532;28;20040;-61
2023/06/18 04:15:44;;;;;;;2.70;2.50;;;;;;;;;;5064011;28;20060;-61
2023/06/18 04:18:10;;;;;;;2.88;2.67;;;;;;;;;;5063386;28;20048;-61
2023/06/18 04:20:36;;;;;;;2.38;2.28;;;;;;;;;;5063154;28;20036;-61
2023/06/18 04:23:03;;;;;;;2.80;2.60;;;;;;;;;;5063991;28;20089;-61
2023/06/18 04:25:30;;;;;;;3.50;3.25;;;;;;;;;;5063291;28;20047;-61
2023/06/18 04:27:56;;;;;;;3.75;3.45;;;;;;;;;;5062816;28;20571;-62
2023/06/18 04:30:22;;;;;;;2.80;2.60;;;;;;;;;;5063442;28;20053;-61
2023/06/18 04:32:48;;;;;;;2.45;2.25;;;;;;;;;;5063948;28;20044;-62
2023/06/18 04:35:14;;;;;;;3.00;2.80;;;;;;;;;;5062667;28;20067;-62
2023/06/18 04:37:40;;;;;;;2.58;2.38;;;;;;;;;;5063681;28;20540;-61
2023/06/18 04:40:07;;;;;;;3.00;2.72;;;;;;;;;;5063306;28;20041;-61
2023/06/18 04:42:33;;;;;;;2.95;2.75;;;;;;;;;;5062596;28;20109;-61
2023/06/18 04:44:59;;;;;;;3.10;2.80;;;;;;;;;;5063258;28;20043;-61
2023/06/18 04:47:25;;;;;;;2.75;2.55;;;;;;;;;;5062870;28;20055;-61
2023/06/18 04:49:51;;;;;;;2.78;2.58;;;;;;;;;;5062630;28;20071;-61
2023/06/18 04:52:17;;;;;;;2.70;2.50;;;;;;;;;;5063588;28;20045;-61
2023/06/18 04:54:43;;;;;;;3.53;3.22;;;;;;;;;;5063218;28;20098;-61
2023/06/18 04:57:12;;;;;;;3.65;3.35;;;;;;;;;;5062293;28;20522;-62
2023/06/18 04:59:39;;;;;;;3.42;3.13;;;;;;;;;;5063239;28;20109;-62
2023/06/18 05:02:05;;;;;;;3.40;3.10;;;;;;;;;;5044971;28;20056;-62
2023/06/18 05:04:31;;;;;;;3.28;2.97;;;;;;;;;;5062000;28;20040;-62
2023/06/18 05:06:57;;;;;;;3.60;3.30;;;;;;;;;;5063189;28;20052;-61
2023/06/18 05:09:23;;;;;;;3.00;2.70;;;;;;;;;;5062448;28;20412;-61
2023/06/18 05:11:49;;;;;;;2.08;1.98;;;;;;;;;;5062915;28;20049;-61
2023/06/18 05:14:15;;;;;;;3.25;2.95;;;;;;;;;;5062935;28;20070;-62
2023/06/18 05:16:41;;;;;;;2.67;2.47;;;;;;;;;;5062227;28;20503;-61
2023/06/18 05:19:07;;;;;;;2.63;2.42;;;;;;;;;;5063368;28;20032;-62
2023/06/18 05:21:33;;;;;;;3.22;2.92;;;;;;;;;;5062964;28;20044;-62
2023/06/18 05:23:59;;;;;;;2.75;2.55;;;;;;;;;;5062431;28;20051;-62
2023/06/18 05:26:25;;;;;;;2.40;2.20;;;;;;;;;;5062726;28;20117;-61
2023/06/18 05:28:51;;;;;;;2.35;2.17;;;;;;;;;;5062666;28;20411;-61
2023/06/18 05:31:17;;;;;;;2.88;2.67;;;;;;;;;;5062137;28;20511;-61
2023/06/18 05:33:43;;;;;;;3.75;3.40;;;;;;;;;;5062601;28;20036;-62
2023/06/18 05:36:09;;;;;;;2.85;2.65;;;;;;;;;;5062585;28;20036;-62
2023/06/18 05:38:35;;;;;;;3.65;2.95;;;;;;;;;;5062080;28;20048;-61
2023/06/18 05:41:01;;;;;;;3.55;3.25;;;;;;;;;;5063227;28;20044;-62
2023/06/18 05:43:27;;;;;;;3.42;3.13;;;;;;;;;;5062510;28;20045;-62
2023/06/18 05:45:53;;;;;;;3.72;3.42;;;;;;;;;;5061863;28;20063;-59
2023/06/18 05:48:19;;;;;;;5.22;4.72;;;;;;;;;;5062798;28;20032;-60
2023/06/18 05:50:45;;;;;;;3.92;3.63;;;;;;;;;;5063479;28;20057;-60
2023/06/18 05:53:12;;;;;;;3.17;2.97;;;;;;;;;;5061483;28;20048;-60
2023/06/18 05:55:37;;;;;;;2.65;2.45;;;;;;;;;;5062897;28;20518;-60
2023/06/18 05:58:03;;;;;;;2.65;2.45;;;;;;;;;;5062571;28;20144;-60
2023/06/18 06:00:30;;;;;;;2.08;1.92;;;;;;;;;;5061427;28;20098;-60
2023/06/18 06:02:56;;;;;;;2.90;2.60;;;;;;;;;;5062516;28;20169;-60
2023/06/18 06:05:22;;;;;;;3.67;3.38;;;;;;;;;;5062296;28;20056;-60
2023/06/18 06:07:48;;;;;;;4.15;3.75;;;;;;;;;;5062134;28;20044;-60
2023/06/18 06:10:18;;;;;;;3.75;3.45;;;;;;;;;;5061657;28;20542;-60
2023/06/18 06:12:44;;;;;;;3.95;3.65;;;;;;;;;;5062469;28;20499;-60
2023/06/18 06:15:10;;;;;;;3.60;3.30;;;;;;;;;;5061130;28;20048;-60
2023/06/18 06:17:37;;;;;;;3.22;3.00;;;;;;;;;;5062294;28;20048;-60
2023/06/18 06:20:03;;;;;;;4.22;3.85;;;;;;;;;;5061672;28;20044;-59
2023/06/18 06:22:29;;;;;;;4.10;3.70;;;;;;;;;;5061872;28;20110;-60
2023/06/18 06:24:55;;;;;;;5.35;4.85;;;;;;;;;;5062274;28;20631;-60
2023/06/18 06:27:21;;;;;;;4.70;4.30;;;;;;;;;;5062870;28;20090;-60
2023/06/18 06:29:47;;;;;;;3.83;3.53;;;;;;;;;;5066271;28;20040;-60
2023/06/18 06:32:13;;;;;;;4.30;3.88;;;;;;;;;;5065502;28;20597;-60
2023/06/18 06:34:40;;;;;;;5.93;5.43;;;;;;;;;;5065044;28;20571;-60
2023/06/18 06:37:06;;;;;;;6.32;5.72;;;;;;;;;;5065943;28;20052;-60
2023/06/18 06:39:33;;;;;;;6.10;5.47;;;;;;;;;;5065597;28;20492;-60
2023/06/18 06:41:59;;;;;;;5.35;4.85;;;;;;;;;;5064946;28;20044;-60
2023/06/18 06:44:25;;;;;;;5.22;4.72;;;;;;;;;;5065180;28;20543;-60
2023/06/18 06:46:51;;;;;;;3.85;3.55;;;;;;;;;;5065193;28;20106;-60
2023/06/18 06:49:17;;;;;;;5.53;5.13;;;;;;;;;;5064933;28;20044;-60
2023/06/18 06:51:43;;;;;;;3.95;3.63;;;;;;;;;;5065693;28;20047;-60
2023/06/18 06:54:10;;;;;;;4.63;3.45;;;;;;;;;;5065113;28;20071;-61
2023/06/18 06:56:36;;;;;;;3.15;2.95;;;;;;;;;;5064743;28;20101;-60
2023/06/18 06:59:02;;;;;;;3.25;3.03;;;;;;;;;;5065311;28;20045;-60
2023/06/18 07:01:28;;;;;;;3.38;3.13;;;;;;;;;;5064820;28;20632;-60
2023/06/18 07:03:55;;;;;;;4.35;4.05;;;;;;;;;;5064639;28;20046;-61
2023/06/18 07:06:20;;;;;;;4.82;3.90;;;;;;;;;;5064811;28;20376;-61
2023/06/18 07:08:46;;;;;;;4.05;3.75;;;;;;;;;;5065582;28;20051;-60
2023/06/18 07:11:12;;;;;;;4.10;2.92;;;;;;;;;;5063843;28;20088;-60
2023/06/18 07:13:39;;;;;;;3.00;2.80;;;;;;;;;;5064956;28;20037;-60
2023/06/18 07:16:05;;;;;;;2.65;2.45;;;;;;;;;;5065344;28;20502;-60
2023/06/18 07:18:31;;;;;;;2.83;2.63;;;;;;;;;;5064032;28;20048;-60
2023/06/18 07:20:57;;;;;;;2.45;2.35;;;;;;;;;;5064994;28;20079;-60
2023/06/18 07:23:23;;;;;;;4.10;3.75;;;;;;;;;;5063737;28;20055;-60
2023/06/18 07:25:49;;;;;;;3.85;3.55;;;;;;;;;;5065212;28;20040;-60
2023/06/18 07:28:16;;;;;;;3.28;3.08;;;;;;;;;;5064770;28;20463;-60
2023/06/18 07:30:42;;;;;;;3.15;2.95;;;;;;;;;;5063806;28;20055;-60
2023/06/18 07:33:08;;;;;;;4.25;3.95;;;;;;;;;;5064647;28;20040;-60
2023/06/18 07:35:34;;;;;;;4.07;3.78;;;;;;;;;;5064539;28;20055;-61
2023/06/18 07:38:00;;;;;;;4.32;3.35;;;;;;;;;;5063872;28;20047;-60
2023/06/18 07:40:28;;;;;;;3.28;3.08;;;;;;;;;;5063987;28;20116;-60
2023/06/18 07:42:54;;;;;;;3.15;2.95;;;;;;;;;;5064495;28;20127;-60
2023/06/18 07:45:20;;;;;;;2.35;2.15;;;;;;;;;;5064066;28;20048;-60
2023/06/18 07:47:46;;;;;;;2.75;2.55;;;;;;;;;;5065053;28;20059;-61
2023/06/18 07:50:12;;;;;;;2.80;2.60;;;;;;;;;;5063912;28;20296;-61
2023/06/18 07:52:38;;;;;;;3.45;3.15;;;;;;;;;;5063621;28;20437;-61
2023/06/18 07:55:05;;;;;;;3.13;2.90;;;;;;;;;;5064169;28;20048;-60
2023/06/18 07:57:31;;;;;;;3.13;2.83;;;;;;;;;;5063812;28;20567;-61
2023/06/18 07:59:57;;;;;;;5.18;4.68;;;;;;;;;;5063804;28;20414;-61
2023/06/18 08:02:23;;;;;;;3.97;3.67;;;;;;;;;;5063451;28;20048;-61
2023/06/18 08:04:49;;;;;;;3.95;3.65;;;;;;;;;;5064465;28;20067;-61
2023/06/18 08:07:15;;;;;;;3.60;3.30;;;;;;;;;;5045269;28;20075;-61
2023/06/18 08:09:41;;;;;;;3.03;2.78;;;;;;;;;;5063612;28;20043;-61
2023/06/18 08:12:08;;;;;;;3.13;2.92;;;;;;;;;;5063654;28;20057;-61
2023/06/18 08:14:34;;;;;;;3.45;3.15;;;;;;;;;;5062965;28;20071;-61
2023/06/18 08:17:00;;;;;;;3.35;3.10;;;;;;;;;;5063873;28;20093;-61
2023/06/18 08:19:26;;;;;;;3.13;2.92;;;;;;;;;;5062947;28;20059;-61
2023/06/18 08:21:53;;;;;;;3.78;3.47;;;;;;;;;;5063329;28;20044;-61
2023/06/18 08:24:19;;;;;;;4.85;4.45;;;;;;;;;;5063839;28;20093;-61
2023/06/18 08:26:45;;;;;;;3.33;3.03;;;;;;;;;;5062791;28;20040;-60
2023/06/18 08:29:11;;;;;;;3.70;3.40;;;;;;;;;;5063778;28;20044;-61
2023/06/18 08:31:41;;;;;;;3.72;3.47;;;;;;;;;;5063760;28;20047;-61
2023/06/18 08:34:07;;;;;;;3.42;3.22;;;;;;;;;;5062324;28;20045;-61
2023/06/18 08:36:33;;;;;;;4.30;4.00;;;;;;;;;;5063154;28;20507;-61
2023/06/18 08:38:59;;;;;;;4.57;4.18;;;;;;;;;;5063280;28;20051;-61
2023/06/18 08:41:27;;;;;;;5.05;4.60;;;;;;;;;;5062094;28;20107;-61
2023/06/18 08:43:53;;;;;;;4.38;3.97;;;;;;;;;;5063338;28;20040;-61
2023/06/18 08:46:20;;;;;;;4.57;4.22;;;;;;;;;;5063323;28;20050;-61
2023/06/18 08:48:52;;;;;;;4.68;4.30;;;;;;;;;;5063007;28;20052;-61
2023/06/18 08:51:19;;;;;;;5.53;5.13;;;;;;;;;;5063553;28;20367;-61
2023/06/18 08:53:46;;;;;;;4.88;4.47;;;;;;;;;;5063608;28;20498;-61
2023/06/18 08:56:14;;;;;;;4.85;4.45;;;;;;;;;;5062155;28;20045;-61
2023/06/18 08:58:42;;;;;;;5.13;3.55;;;;;;;;;;5063476;28;20499;-61
2023/06/18 09:01:08;;;;;;;4.70;3.97;;;;;;;;;;5062799;28;20094;-61
2023/06/18 09:03:37;;;;;;;3.88;3.58;;;;;;;;;;5062415;28;20119;-61
2023/06/18 09:06:03;;;;;;;4.18;3.78;;;;;;;;;;5062754;28;20431;-61
2023/06/18 09:08:31;;;;;;;4.10;3.80;;;;;;;;;;5062668;28;20052;-61
2023/06/18 09:10:58;;;;;;;4.10;3.70;;;;;;;;;;5062267;28;20056;-61
2023/06/18 09:13:24;;;;;;;3.47;3.28;;;;;;;;;;5062521;28;20106;-60
2023/06/18 09:15:51;;;;;;;4.30;3.90;;;;;;;;;;5062622;28;20082;-61
2023/06/18 09:18:17;;;;;;;3.90;3.60;;;;;;;;;;5063036;28;20046;-61
2023/06/18 09:20:43;;;;;;;3.78;3.47;;;;;;;;;;5044888;28;20059;-61
2023/06/18 09:23:10;;;;;;;3.63;3.28;;;;;;;;;;5044138;28;20056;-61
2023/06/18 09:25:36;;;;;;;3.22;3.03;;;;;;;;;;5063029;28;20080;-61
2023/06/18 09:28:03;;;;;;;2.63;2.42;;;;;;;;;;5062963;28;20043;-61
2023/06/18 09:30:29;;;;;;;2.72;2.60;;;;;;;;;;5061775;28;20052;-61
2023/06/18 09:32:59;;;;;;;3.55;3.25;;;;;;;;;;5062680;28;20542;-61
2023/06/18 09:35:26;;;;;;;3.05;2.85;;;;;;;;;;5062374;28;20596;-61
2023/06/18 09:37:52;;;;;;;3.28;3.00;;;;;;;;;;5062529;28;20048;-61
2023/06/18 09:40:20;;;;;;;4.25;3.65;;;;;;;;;;5063015;28;20049;-61
2023/06/18 09:42:50;;;;;;;4.45;4.05;;;;;;;;;;5045503;28;20048;-61
2023/06/18 09:45:17;;;;;;;3.80;3.50;;;;;;;;;;5044208;28;20122;-61
2023/06/18 09:47:44;;;;;;;3.65;3.35;;;;;;;;;;5062611;28;20033;-61
2023/06/18 09:50:11;;;;;;;3.92;3.72;;;;;;;;;;5062698;28;20486;-61
2023/06/18 09:52:44;;;;;;;3.42;3.13;;;;;;;;;;5061928;28;20033;-61
2023/06/18 09:55:29;;;;;;;3.03;2.83;;;;;;;;;;5062269;28;20505;-61
2023/06/18 09:57:57;;;;;;;3.80;3.50;;;;;;;;;;5061851;28;20522;-61
2023/06/18 10:00:23;;;;;;;3.15;2.95;;;;;;;;;;5062114;28;20503;-61
2023/06/18 10:02:49;;;;;;;2.78;2.58;;;;;;;;;;5067239;28;20080;-61
2023/06/18 10:05:16;;;;;;;3.17;2.97;;;;;;;;;;5065123;28;20845;-61
2023/06/18 10:07:42;;;;;;;2.55;2.45;;;;;;;;;;5066299;28;20110;-61
2023/06/18 10:10:15;;;;;;;2.70;2.50;;;;;;;;;;5065826;28;20410;-61
2023/06/18 10:12:48;;;;;;;2.55;2.40;;;;;;;;;;5065464;28;20055;-61
2023/06/18 10:15:14;;;;;;;3.13;2.85;;;;;;;;;;5065751;28;20526;-61
2023/06/18 10:17:48;;;;;;;3.08;2.80;;;;;;;;;;5066447;28;20370;-61
2023/06/18 10:20:15;;;;;;;3.03;2.83;;;;;;;;;;5065015;28;20147;-61
2023/06/18 10:22:55;;;;;;;3.83;3.53;;;;;;;;;;5066134;28;20523;-61
2023/06/18 10:25:21;;;;;;;3.42;3.13;;;;;;;;;;5065684;28;20055;-61
2023/06/18 10:27:49;;;;;;;3.90;3.60;;;;;;;;;;5065551;28;20114;-61
2023/06/18 10:30:15;;;;;;;3.70;3.40;;;;;;;;;;5065403;28;20400;-61
2023/06/18 10:32:42;;;;;;;4.03;3.63;;;;;;;;;;5065691;28;20052;-62
2023/06/18 10:35:09;;;;;;;3.65;3.35;;;;;;;;;;5064949;28;20098;-63
2023/06/18 10:37:36;;;;;;;3.20;3.00;;;;;;;;;;5065757;28;20044;-63
2023/06/18 10:40:03;;;;;;;3.60;3.30;;;;;;;;;;5065516;28;20451;-62
2023/06/18 10:42:31;;;;;;;3.40;3.20;;;;;;;;;;5064932;28;20128;-62
2023/06/18 10:44:58;;;;;;;4.65;4.22;;;;;;;;;;5065899;28;20153;-62
2023/06/18 10:47:28;;;;;;;4.43;4.03;;;;;;;;;;5064313;28;20504;-62
2023/06/18 10:50:13;;;;;;;3.20;3.00;;;;;;;;;;5065579;28;20056;-62
2023/06/18 10:52:40;;;;;;;3.28;3.08;;;;;;;;;;5065399;28;20639;-62
2023/06/18 10:55:06;;;;;;;3.47;3.25;;;;;;;;;;5064975;28;20048;-63
2023/06/18 10:57:36;;;;;;;3.85;3.55;;;;;;;;;;5047438;28;20177;-63
2023/06/18 11:00:15;;;;;;;4.20;3.90;;;;;;;;;;5065634;28;20044;-63
2023/06/18 11:02:41;;;;;;;3.72;3.53;;;;;;;;;;5064597;28;20166;-63
2023/06/18 11:05:07;;;;;;;4.28;3.90;;;;;;;;;;5047040;28;20055;-63
2023/06/18 11:07:33;;;;;;;5.15;3.80;;;;;;;;;;5065252;28;20041;-63
2023/06/18 11:10:01;;;;;;;4.47;4.07;;;;;;;;;;5064549;28;20060;-63
2023/06/18 11:12:30;;;;;;;4.32;3.92;;;;;;;;;;5064069;28;20576;-63
2023/06/18 11:15:06;;;;;;;4.00;3.70;;;;;;;;;;5065110;28;20055;-63
2023/06/18 11:17:34;;;;;;;3.78;3.35;;;;;;;;;;5064178;28;20094;-63
2023/06/18 11:20:01;;;;;;;3.33;3.13;;;;;;;;;;5065118;28;20036;-63
2023/06/18 11:22:28;;;;;;;4.22;3.92;;;;;;;;;;5063916;28;20055;-63
2023/06/18 11:24:55;;;;;;;3.35;3.15;;;;;;;;;;5064552;28;20540;-63
2023/06/18 11:27:22;;;;;;;4.20;3.90;;;;;;;;;;5064737;28;20044;-63
2023/06/18 11:29:48;;;;;;;3.60;3.40;;;;;;;;;;5064796;28;20442;-63
2023/06/18 11:32:14;;;;;;;3.45;3.25;;;;;;;;;;5046133;28;20052;-63
2023/06/18 11:34:44;;;;;;;3.67;3.45;;;;;;;;;;5064780;28;20048;-63
2023/06/18 11:37:10;;;;;;;4.18;3.88;;;;;;;;;;5063893;28;20044;-63
2023/06/18 11:39:37;;;;;;;3.33;3.13;;;;;;;;;;5064859;28;20048;-63
2023/06/18 11:42:19;;;;;;;3.70;3.50;;;;;;;;;;5064324;28;20508;-63
2023/06/18 11:44:52;;;;;;;3.33;3.13;;;;;;;;;;5063706;28;20491;-63
2023/06/18 11:47:19;;;;;;;4.03;3.72;;;;;;;;;;5064755;28;20080;-63
2023/06/18 11:49:45;;;;;;;4.22;3.92;;;;;;;;;;5064751;28;20390;-63
2023/06/18 11:52:12;;;;;;;4.20;3.80;;;;;;;;;;5063366;28;20048;-63
2023/06/18 11:54:39;;;;;;;3.72;3.42;;;;;;;;;;5064095;28;20040;-63
2023/06/18 11:57:06;;;;;;;2.78;2.58;;;;;;;;;;5064224;28;20120;-63
2023/06/18 11:59:33;;;;;;;2.70;2.50;;;;;;;;;;5063618;28;20051;-63
2023/06/18 12:02:18;;;;;;;2.50;2.30;;;;;;;;;;5064177;28;20511;-63
2023/06/18 12:04:45;;;;;;;3.33;3.13;;;;;;;;;;5063560;28;20076;-63
2023/06/18 12:07:16;;;;;;;2.88;2.67;;;;;;;;;;5063545;28;20079;-63
2023/06/18 12:09:43;;;;;;;2.80;2.60;;;;;;;;;;5063770;28;20086;-63
2023/06/18 12:12:12;;;;;;;2.90;2.70;;;;;;;;;;5063276;28;20078;-63
2023/06/18 12:14:57;;;;;;;2.90;2.70;;;;;;;;;;5063937;28;20412;-63
2023/06/18 12:17:43;;;;;;;3.67;3.42;;;;;;;;;;5063790;28;20488;-63
2023/06/18 12:20:13;;;;;;;3.00;2.80;;;;;;;;;;5062753;28;20176;-63
2023/06/18 12:22:40;;;;;;;3.20;2.88;;;;;;;;;;5063730;28;20508;-63
2023/06/18 12:25:06;;;;;;;3.30;3.10;;;;;;;;;;5062788;28;20087;-63
2023/06/18 12:27:34;;;;;;;3.40;3.20;;;;;;;;;;5062838;28;20794;-63
2023/06/18 12:30:01;;;;;;;3.63;3.42;;;;;;;;;;5063584;28;20123;-63
2023/06/18 12:32:27;;;;;;;3.90;3.70;;;;;;;;;;5063000;28;20520;-63
2023/06/18 12:34:53;;;;;;;3.95;3.67;;;;;;;;;;5062883;28;20404;-63
2023/06/18 12:37:19;;;;;;;4.07;3.70;;;;;;;;;;5063606;28;20049;-63
2023/06/18 12:40:04;;;;;;;4.05;3.75;;;;;;;;;;5062631;28;20128;-63
2023/06/18 12:42:32;;;;;;;3.75;3.45;;;;;;;;;;5062906;28;20045;-63
2023/06/18 12:44:58;;;;;;;3.83;3.53;;;;;;;;;;5063308;28;20097;-63
2023/06/18 12:47:24;;;;;;;2.97;2.78;;;;;;;;;;5062492;28;20055;-63
2023/06/18 12:49:50;;;;;;;4.28;3.92;;;;;;;;;;5063886;28;20094;-63
2023/06/18 12:52:17;;;;;;;3.55;3.33;;;;;;;;;;5063151;28;20133;-63
2023/06/18 12:54:46;;;;;;;3.38;3.08;;;;;;;;;;5062299;28;20454;-63
2023/06/18 12:57:16;;;;;;;3.22;2.92;;;;;;;;;;5063060;28;20719;-63
2023/06/18 12:59:50;;;;;;;2.80;2.70;;;;;;;;;;5063272;28;20080;-63
2023/06/18 13:02:16;;;;;;;2.90;2.70;;;;;;;;;;5062110;28;20551;-63
2023/06/18 13:04:44;;;;;;;3.13;2.92;;;;;;;;;;5063076;28;20151;-63
2023/06/18 13:07:10;;;;;;;3.00;2.80;;;;;;;;;;5062774;28;20044;-63
2023/06/18 13:09:36;;;;;;;2.80;2.60;;;;;;;;;;5062819;28;20040;-63
2023/06/18 13:12:02;;;;;;;3.30;3.00;;;;;;;;;;5062901;28;20401;-63
2023/06/18 13:14:28;;;;;;;2.92;2.72;;;;;;;;;;5062727;28;20054;-63
2023/06/18 13:16:59;;;;;;;2.40;2.30;;;;;;;;;;5062399;28;20117;-63
2023/06/18 13:19:25;;;;;;;2.53;2.33;;;;;;;;;;5063207;28;20113;-63
2023/06/18 13:21:51;;;;;;;2.10;2.00;;;;;;;;;;5063294;28;20050;-63
2023/06/18 13:24:17;;;;;;;2.38;2.28;;;;;;;;;;5062759;28;20484;-63
2023/06/18 13:26:43;;;;;;;2.67;2.50;;;;;;;;;;5062515;28;20115;-63
2023/06/18 13:29:09;;;;;;;2.67;2.58;;;;;;;;;;5061774;28;20275;-63
2023/06/18 13:31:36;;;;;;;2.78;2.58;;;;;;;;;;5063204;28;20044;-63
2023/06/18 13:34:02;;;;;;;3.38;3.10;;;;;;;;;;5062971;28;20036;-63
2023/06/18 13:36:29;;;;;;;2.80;2.70;;;;;;;;;;5063965;28;20408;-63
2023/06/18 13:38:55;;;;;;;3.03;2.80;;;;;;;;;;5067124;28;20080;-63
2023/06/18 13:41:20;;;;;;;3.47;3.28;;;;;;;;;;5066727;28;20087;-63
2023/06/18 13:43:46;;;;;;;2.95;2.75;;;;;;;;;;5066290;28;20048;-63
2023/06/18 13:46:12;;;;;;;2.75;2.55;;;;;;;;;;5066329;28;20044;-63
2023/06/18 13:48:38;;;;;;;2.72;2.53;;;;;;;;;;5066718;28;20148;-63
2023/06/18 13:51:04;;;;;;;2.20;2.10;;;;;;;;;;5066126;28;20123;-63
2023/06/18 13:53:30;;;;;;;2.85;2.72;;;;;;;;;;5066153;28;20040;-63
2023/06/18 13:55:56;;;;;;;2.70;2.50;;;;;;;;;;5066630;28;20056;-63
2023/06/18 13:58:22;;;;;;;2.10;2.00;;;;;;;;;;5065610;28;20058;-63
2023/06/18 14:00:48;;;;;;;2.35;2.25;;;;;;;;;;5067108;28;20109;-63
2023/06/18 14:03:14;;;;;;;4.95;4.47;;;;;;;;;;5048316;28;20062;-63
2023/06/18 14:05:41;;;;;;;4.35;4.05;;;;;;;;;;5065487;28;20506;-63
2023/06/18 14:08:07;;;;;;;4.25;3.90;;;;;;;;;;5065937;28;20044;-63
2023/06/18 14:10:34;;;;;;;3.35;3.15;;;;;;;;;;5066016;28;20060;-63
2023/06/18 14:13:00;;;;;;;4.13;3.83;;;;;;;;;;5065589;28;20127;-63
2023/06/18 14:15:26;;;;;;;3.42;3.22;;;;;;;;;;5065991;28;20044;-63
2023/06/18 14:17:52;;;;;;;2.88;2.67;;;;;;;;;;5066610;28;20082;-63
2023/06/18 14:20:18;;;;;;;2.65;2.55;;;;;;;;;;5065858;28;20098;-63
2023/06/18 14:22:45;;;;;;;3.22;3.03;;;;;;;;;;5065846;28;20051;-63
2023/06/18 14:25:11;;;;;;;2.80;2.60;;;;;;;;;;5065064;28;20457;-63
2023/06/18 14:27:37;;;;;;;3.10;2.90;;;;;;;;;;5065693;28;20045;-63
2023/06/18 14:30:03;;;;;;;3.40;3.20;;;;;;;;;;5066318;28;20075;-63
2023/06/18 14:32:30;;;;;;;3.25;3.05;;;;;;;;;;5064762;28;20094;-63
2023/06/18 14:34:56;;;;;;;3.05;2.78;;;;;;;;;;5065752;28;20499;-63
2023/06/18 14:37:23;;;;;;;2.03;1.92;;;;;;;;;;5065853;28;20032;-63
2023/06/18 14:39:50;;;;;;;2.92;2.72;;;;;;;;;;5065533;28;20609;-63
2023/06/18 14:42:16;;;;;;;3.58;3.28;;;;;;;;;;5065539;28;20036;-63